Trans Exeter — 9HA2572 — position and weather

sailwx.info

Track history (hours):
 
Tides and Currents Weather Stations Pressure Air Temp Water Temp Dewpoint Dewpoint Depression Visibility Wind Speed Wind Dir Waves Ship Positions

Trans Exeter

Last reported at 2015-May-23 08:31 UTC. Time now 2015-May-24 23:23 UTC.
Position N 33°16' E 029°08'.

Length 118 m; draft 7.5 m.

Type: Ship (hazmat cat C). MMSI: 248908000.

Date/timePositionNaut miles runAvg speedWind from/ knotsBaromVisibWave heightAir tempDewpointWater temp
2015-May-23 08:31N 33°16' E 029°08'3514.6
2015-May-23 06:06N 33°07' E 029°48'814.2
2015-May-23 05:33N 33°05' E 029°57'1414.1
2015-May-23 04:33N 33°01' E 030°13'1413.8
2015-May-23 03:33N 32°57' E 030°29'1413.8
2015-May-23 02:34N 32°54' E 030°45'1413.7
2015-May-23 01:34N 32°50' E 031°00'  
2015-May-20 00:22N 36°31' E 026°41'5915.5
2015-May-19 20:34N 37°15' E 025°52'1615.2
2015-May-19 19:29N 37°31' E 025°44'1415.2
2015-May-19 18:34N 37°44' E 025°37'  
2015-May-14 23:18N 37°52' E 024°32'1314.3
2015-May-14 22:22N 37°44' E 024°20'1314.1
2015-May-14 21:29N 37°35' E 024°07'1414.5
2015-May-14 20:33N 37°37' E 023°51'1313.3
2015-May-14 19:33N 37°46' E 023°38'1111.1
2015-May-14 18:33N 37°57' E 023°35'1 0.1
2015-May-14 04:33N 37°57' E 023°36'7 7.5
2015-May-14 03:33N 37°50' E 023°40'5 5.2
2015-May-14 02:32N 37°45' E 023°43'7 7.0
2015-May-14 01:33N 37°39' E 023°46'8 7.7
2015-May-14 00:32N 37°31' E 023°45'0 0.2
2015-May-13 23:33N 37°31' E 023°45'8 7.5
2015-May-13 22:33N 37°39' E 023°46'7 7.0
2015-May-13 21:33N 37°32' E 023°46'1713.9
2015-May-13 20:19N 37°14' E 023°44'  
Track history (hours):
 
Tides and Currents Weather Stations Pressure Air Temp Water Temp Dewpoint Dewpoint Depression Visibility Wind Speed Wind Dir Waves Ship Positions

Trans Exeter

Last reported at 2015-May-23 08:31 UTC. Time now 2015-May-24 23:23 UTC.
Position N 33°16' E 029°08'.

Length 118 m; draft 7.5 m.

Type: Ship (hazmat cat C). MMSI: 248908000.

Date/timePositionNaut miles runAvg speedWind from/ knotsBaromVisibWave heightAir tempDewpointWater temp
2015-May-23 08:31N 33°16' E 029°08'3514.6
2015-May-23 06:06N 33°07' E 029°48'814.2
2015-May-23 05:33N 33°05' E 029°57'1414.1
2015-May-23 04:33N 33°01' E 030°13'1413.8
2015-May-23 03:33N 32°57' E 030°29'1413.8
2015-May-23 02:34N 32°54' E 030°45'1413.7
2015-May-23 01:34N 32°50' E 031°00'  
2015-May-20 00:22N 36°31' E 026°41'5915.5
2015-May-19 20:34N 37°15' E 025°52'1615.2
2015-May-19 19:29N 37°31' E 025°44'1415.2
2015-May-19 18:34N 37°44' E 025°37'  
2015-May-14 23:18N 37°52' E 024°32'1314.3
2015-May-14 22:22N 37°44' E 024°20'1314.1
2015-May-14 21:29N 37°35' E 024°07'1414.5
2015-May-14 20:33N 37°37' E 023°51'1313.3
2015-May-14 19:33N 37°46' E 023°38'1111.1
2015-May-14 18:33N 37°57' E 023°35'1 0.1
2015-May-14 04:33N 37°57' E 023°36'7 7.5
2015-May-14 03:33N 37°50' E 023°40'5 5.2
2015-May-14 02:32N 37°45' E 023°43'7 7.0
2015-May-14 01:33N 37°39' E 023°46'8 7.7
2015-May-14 00:32N 37°31' E 023°45'0 0.2
2015-May-13 23:33N 37°31' E 023°45'8 7.5
2015-May-13 22:33N 37°39' E 023°46'7 7.0
2015-May-13 21:33N 37°32' E 023°46'1713.9
2015-May-13 20:19N 37°14' E 023°44'  

Dump ship's entire track history